Time,TemperatureF,DewpointF,PressureIn,WindDirection,WindDirectionDegrees,WindSpeedMPH,WindSpeedGustMPH,Humidity,HourlyPrecipIn,Conditions,Clouds,dailyrainin,SolarRadiationWatts/m^2,SoftwareType,DateUTC
2013-04-19 00:02:00,9.0,-2.0,-100.00,North,356,5.0,12.0,59,0.00,,,0.00,0.000000,,2013-04-19 06:02:00,
2013-04-19 00:32:00,11.0,-1.0,-100.00,North,356,7.0,13.0,58,0.00,,,0.00,0.000000,,2013-04-19 06:32:00,
2013-04-19 00:42:00,11.0,-1.0,-100.00,North,356,7.0,13.0,58,0.00,,,0.00,0.000000,,2013-04-19 06:42:00,
2013-04-19 00:53:00,11.0,-1.0,-100.00,North,356,7.0,13.0,58,0.00,,,0.00,0.000000,,2013-04-19 06:53:00,
2013-04-19 01:02:00,11.0,-1.0,-100.00,North,356,7.0,13.0,58,0.00,,,0.00,0.000000,,2013-04-19 07:02:00,
2013-04-19 02:33:00,10.0,1.0,-100.00,NNE,12,6.0,18.0,67,-99.99,,,0.00,0.000000,,2013-04-19 08:33:00,
2013-04-19 02:42:00,10.0,1.0,-100.00,NNE,12,6.0,18.0,67,-99.99,,,0.00,0.000000,,2013-04-19 08:42:00,
2013-04-19 02:52:00,10.0,1.0,-100.00,NNE,12,6.0,18.0,67,-99.99,,,0.00,0.000000,,2013-04-19 08:52:00,
2013-04-19 03:01:00,10.0,1.0,-100.00,NNE,12,6.0,18.0,67,-99.99,,,0.00,0.000000,,2013-04-19 09:01:00,
2013-04-19 03:33:00,13.0,4.0,-100.00,NNE,18,9.0,18.0,67,0.00,,,0.00,0.000000,,2013-04-19 09:33:00,
2013-04-19 03:43:00,13.0,4.0,-100.00,NNE,18,9.0,18.0,67,0.00,,,0.00,0.000000,,2013-04-19 09:43:00,
2013-04-19 03:52:00,13.0,4.0,-100.00,NNE,18,9.0,18.0,67,0.00,,,0.00,0.000000,,2013-04-19 09:52:00,
2013-04-19 04:02:00,13.0,4.0,-100.00,NNE,18,9.0,18.0,67,0.00,,,0.00,0.000000,,2013-04-19 10:02:00,
2013-04-19 04:33:00,12.0,3.0,-100.00,North,0,8.0,19.0,67,0.00,,,0.00,0.000000,,2013-04-19 10:33:00,
2013-04-19 04:42:00,12.0,3.0,-100.00,North,0,8.0,19.0,67,0.00,,,0.00,0.000000,,2013-04-19 10:42:00,
2013-04-19 04:52:00,12.0,3.0,-100.00,North,0,8.0,19.0,67,0.00,,,0.00,0.000000,,2013-04-19 10:52:00,
2013-04-19 05:03:00,12.0,3.0,-100.00,North,0,8.0,19.0,67,0.00,,,0.00,0.000000,,2013-04-19 11:03:00,
2013-04-19 05:32:00,11.0,3.0,-100.00,WSW,257,3.0,12.0,68,0.00,,,0.00,0.000000,,2013-04-19 11:32:00,
2013-04-19 05:43:00,11.0,3.0,-100.00,WSW,257,3.0,12.0,68,0.00,,,0.00,0.000000,,2013-04-19 11:43:00,
2013-04-19 05:52:00,11.0,3.0,-100.00,WSW,257,3.0,12.0,68,0.00,,,0.00,0.000000,,2013-04-19 11:52:00,
2013-04-19 06:03:00,11.0,3.0,-100.00,WSW,257,3.0,12.0,68,0.00,,,0.00,0.000000,,2013-04-19 12:03:00,
2013-04-19 06:32:00,14.0,3.0,-100.00,North,359,7.0,14.0,62,0.00,,,0.00,0.000000,,2013-04-19 12:32:00,
2013-04-19 06:42:00,14.0,3.0,-100.00,North,359,7.0,14.0,62,0.00,,,0.00,0.000000,,2013-04-19 12:42:00,
2013-04-19 06:53:00,14.0,3.0,-100.00,North,359,7.0,14.0,62,0.00,,,0.00,0.000000,,2013-04-19 12:53:00,
2013-04-19 07:01:00,14.0,3.0,-100.00,North,359,7.0,14.0,62,0.00,,,0.00,0.000000,,2013-04-19 13:01:00,
2013-04-19 07:32:00,15.0,5.0,-100.00,North,10,9.0,18.0,63,0.00,,,0.00,16.000000,,2013-04-19 13:32:00,
2013-04-19 07:42:00,15.0,5.0,-100.00,North,10,9.0,18.0,63,0.00,,,0.00,16.000000,,2013-04-19 13:42:00,
2013-04-19 07:52:00,15.0,5.0,-100.00,North,10,9.0,18.0,63,0.00,,,0.00,16.000000,,2013-04-19 13:52:00,
2013-04-19 08:02:00,15.0,5.0,-100.00,North,10,9.0,18.0,63,0.00,,,0.00,16.000000,,2013-04-19 14:02:00,
2013-04-19 08:32:00,21.0,7.0,-100.00,NNE,12,10.0,22.0,54,0.00,,,0.00,244.000000,,2013-04-19 14:32:00,
2013-04-19 08:43:00,21.0,7.0,-100.00,NNE,12,10.0,22.0,54,0.00,,,0.00,244.000000,,2013-04-19 14:43:00,
2013-04-19 08:52:00,21.0,7.0,-100.00,NNE,12,10.0,22.0,54,0.00,,,0.00,244.000000,,2013-04-19 14:52:00,
2013-04-19 09:01:00,21.0,7.0,-100.00,NNE,12,10.0,22.0,54,0.00,,,0.00,244.000000,,2013-04-19 15:01:00,
2013-04-19 09:33:00,25.0,7.0,-100.00,NNE,14,12.0,24.0,45,0.00,,,0.00,518.000000,,2013-04-19 15:33:00,
2013-04-19 09:43:00,25.0,7.0,-100.00,NNE,14,12.0,24.0,45,0.00,,,0.00,518.000000,,2013-04-19 15:43:00,
2013-04-19 09:52:00,25.0,7.0,-100.00,NNE,14,12.0,24.0,45,0.00,,,0.00,518.000000,,2013-04-19 15:52:00,
2013-04-19 10:03:00,25.0,7.0,-100.00,NNE,14,12.0,24.0,45,0.00,,,0.00,518.000000,,2013-04-19 16:03:00,
2013-04-19 10:33:00,28.0,7.0,-100.00,North,5,14.0,32.0,41,0.00,,,0.00,771.000000,,2013-04-19 16:33:00,
2013-04-19 10:43:00,28.0,7.0,-100.00,North,5,14.0,32.0,41,0.00,,,0.00,771.000000,,2013-04-19 16:43:00,
2013-04-19 10:53:00,28.0,7.0,-100.00,North,5,14.0,32.0,41,0.00,,,0.00,771.000000,,2013-04-19 16:53:00,
2013-04-19 11:02:00,28.0,7.0,-100.00,North,5,14.0,32.0,41,0.00,,,0.00,771.000000,,2013-04-19 17:02:00,
2013-04-19 11:33:00,32.0,10.0,-100.00,North,8,10.0,25.0,39,0.00,,,0.00,979.000000,,2013-04-19 17:33:00,
2013-04-19 11:43:00,32.0,10.0,-100.00,North,8,10.0,25.0,39,0.00,,,0.00,979.000000,,2013-04-19 17:43:00,
2013-04-19 11:52:00,32.0,10.0,-100.00,North,8,10.0,25.0,39,0.00,,,0.00,979.000000,,2013-04-19 17:52:00,
2013-04-19 12:02:00,32.0,10.0,-100.00,North,8,10.0,25.0,39,0.00,,,0.00,979.000000,,2013-04-19 18:02:00,
2013-04-19 12:33:00,34.0,11.0,-100.00,North,10,11.0,25.0,38,0.00,,,0.00,1153.000000,,2013-04-19 18:33:00,
2013-04-19 12:43:00,34.0,11.0,-100.00,North,10,11.0,25.0,38,0.00,,,0.00,1153.000000,,2013-04-19 18:43:00,
2013-04-19 12:52:00,34.0,11.0,-100.00,North,10,11.0,25.0,38,0.00,,,0.00,1153.000000,,2013-04-19 18:52:00,
2013-04-19 13:02:00,34.0,11.0,-100.00,North,10,11.0,25.0,38,0.00,,,0.00,1153.000000,,2013-04-19 19:02:00,
2013-04-19 13:32:00,34.0,11.0,-100.00,North,6,11.0,22.0,38,0.00,,,0.00,1192.000000,,2013-04-19 19:32:00,
2013-04-19 13:42:00,34.0,11.0,-100.00,North,6,11.0,22.0,38,0.00,,,0.00,1192.000000,,2013-04-19 19:42:00,
2013-04-19 13:52:00,34.0,11.0,-100.00,North,6,11.0,22.0,38,0.00,,,0.00,1192.000000,,2013-04-19 19:52:00,
2013-04-19 14:02:00,34.0,11.0,-100.00,North,6,11.0,22.0,38,0.00,,,0.00,1192.000000,,2013-04-19 20:02:00,
2013-04-19 14:32:00,36.0,12.0,-100.00,North,2,9.0,25.0,36,0.00,,,0.00,1158.000000,,2013-04-19 20:32:00,
2013-04-19 14:42:00,36.0,12.0,-100.00,North,2,9.0,25.0,36,0.00,,,0.00,1158.000000,,2013-04-19 20:42:00,
2013-04-19 14:52:00,36.0,12.0,-100.00,North,2,9.0,25.0,36,0.00,,,0.00,1158.000000,,2013-04-19 20:52:00,
2013-04-19 15:01:00,36.0,12.0,-100.00,North,2,9.0,25.0,36,0.00,,,0.00,1158.000000,,2013-04-19 21:01:00,
2013-04-19 16:33:00,37.0,14.0,-100.00,North,359,9.0,16.0,39,-99.99,,,0.00,1004.000000,,2013-04-19 22:33:00,
2013-04-19 16:42:00,37.0,14.0,-100.00,North,359,9.0,16.0,39,-99.99,,,0.00,1004.000000,,2013-04-19 22:42:00,
2013-04-19 16:52:00,37.0,14.0,-100.00,North,359,9.0,16.0,39,-99.99,,,0.00,1004.000000,,2013-04-19 22:52:00,
2013-04-19 17:03:00,37.0,14.0,-100.00,North,359,9.0,16.0,39,-99.99,,,0.00,1004.000000,,2013-04-19 23:03:00,
2013-04-19 17:32:00,36.0,13.0,-100.00,North,356,5.0,15.0,38,0.00,,,0.00,608.000000,,2013-04-19 23:32:00,
2013-04-19 17:42:00,36.0,13.0,-100.00,North,356,5.0,15.0,38,0.00,,,0.00,608.000000,,2013-04-19 23:42:00,
2013-04-19 17:52:00,36.0,13.0,-100.00,North,356,5.0,15.0,38,0.00,,,0.00,608.000000,,2013-04-19 23:52:00,
2013-04-19 18:02:00,36.0,13.0,-100.00,North,356,5.0,15.0,38,0.00,,,0.00,608.000000,,2013-04-20 00:02:00,
2013-04-19 19:32:00,27.0,17.0,-100.00,North,7,6.0,13.0,66,-99.99,,,0.00,109.000000,,2013-04-20 01:32:00,
2013-04-19 19:42:00,27.0,17.0,-100.00,North,7,6.0,13.0,66,-99.99,,,0.00,109.000000,,2013-04-20 01:42:00,
2013-04-19 19:52:00,27.0,17.0,-100.00,North,7,6.0,13.0,66,-99.99,,,0.00,109.000000,,2013-04-20 01:52:00,
2013-04-19 20:01:00,27.0,17.0,-100.00,North,7,6.0,13.0,66,-99.99,,,0.00,109.000000,,2013-04-20 02:01:00,
2013-04-19 20:32:00,25.0,17.0,-100.00,NNE,33,3.0,9.0,72,0.00,,,0.00,12.000000,,2013-04-20 02:32:00,
2013-04-19 20:42:00,25.0,17.0,-100.00,NNE,33,3.0,9.0,72,0.00,,,0.00,12.000000,,2013-04-20 02:42:00,
2013-04-19 20:52:00,25.0,17.0,-100.00,NNE,33,3.0,9.0,72,0.00,,,0.00,12.000000,,2013-04-20 02:52:00,
2013-04-19 21:01:00,25.0,17.0,-100.00,NNE,33,3.0,9.0,72,0.00,,,0.00,12.000000,,2013-04-20 03:01:00,
2013-04-19 21:33:00,24.0,17.0,-100.00,NNE,26,4.0,9.0,75,0.00,,,0.00,0.000000,,2013-04-20 03:33:00,
2013-04-19 21:43:00,24.0,17.0,-100.00,NNE,26,4.0,9.0,75,0.00,,,0.00,0.000000,,2013-04-20 03:43:00,
2013-04-19 21:53:00,24.0,17.0,-100.00,NNE,26,4.0,9.0,75,0.00,,,0.00,0.000000,,2013-04-20 03:53:00,
2013-04-19 22:03:00,24.0,17.0,-100.00,NNE,26,4.0,9.0,75,0.00,,,0.00,0.000000,,2013-04-20 04:03:00,
2013-04-19 22:33:00,24.0,16.0,-100.00,North,11,5.0,8.0,71,0.00,,,0.00,0.000000,,2013-04-20 04:33:00,
2013-04-19 22:43:00,24.0,16.0,-100.00,North,11,5.0,8.0,71,0.00,,,0.00,0.000000,,2013-04-20 04:43:00,
2013-04-19 22:53:00,24.0,16.0,-100.00,North,11,5.0,8.0,71,0.00,,,0.00,0.000000,,2013-04-20 04:53:00,
2013-04-19 23:02:00,24.0,16.0,-100.00,North,11,5.0,8.0,71,0.00,,,0.00,0.000000,,2013-04-20 05:02:00,
2013-04-19 23:32:00,23.0,16.0,-100.00,NNE,27,4.0,10.0,73,0.00,,,0.00,0.000000,,2013-04-20 05:32:00,
2013-04-19 23:43:00,23.0,16.0,-100.00,NNE,27,4.0,10.0,73,0.00,,,0.00,0.000000,,2013-04-20 05:43:00,
2013-04-19 23:52:00,23.0,16.0,-100.00,NNE,27,4.0,10.0,73,0.00,,,0.00,0.000000,,2013-04-20 05:52:00,